Strinestown, Pennsylvania
Current Conditions -  °F | °C
As of 10:56 AM on Wednesday 28 Jan 2015 (Local Time) from KMDT Reporting Station
Clear Clear  
Wind Chill: 11°   Ceiling: Unl
Heat Index: 25°   Visibility: 10mi
Dew Point:   Wind: 21mph
Humidity: 41%   Direction: 320°NW
Pressure: 30.2"   Gusts: 30mph
Location:  40.0596°N, 76.7235°W
Report Text: KMDT 281556Z 32018G26KT 10SM CLR M04/M16 A3020 RMK AO2 PK WND 32026/1552 SLP233 T10391156
Loading
Personal Weather Stations






























Interactive Weather Map New forecast layout! Learn more

10-Day Weather Forecast

Advertisements
Track Severe Weather on mobile